Monson, Massachusetts
Current Conditions -  °F | °C
As of 12:58 PM on Saturday 20 Dec 2014 (Local Time) from KCEF Reporting Station
Clear Clear  
Wind Chill: 34°   Ceiling: Unl
Heat Index: 34°   Visibility: 10mi
Dew Point: 20°   Wind: 3mph
Humidity: 57%   Direction: 350°N
Pressure: 30.25"   Gusts: NA
Location:  42.1°N, 72.32°W
Report Text: KCEF 201758Z AUTO 35003KT 10SM CLR 01/M07 A3025 RMK AO2 SLP253 T00091067 10011 21053 57013
Loading
Personal Weather Stations






























Interactive Weather Map New forecast layout! Learn more

10-Day Weather Forecast

Advertisements
Track Severe Weather on mobile